sensor_id;sensor_type;location;lat;lon;timestamp;P1;durP1;ratioP1;P2;durP2;ratioP2
21101;SDS011;10709;49.006;12.100;2023-07-29T00:00:12;3.30;;;3.00;;
21101;SDS011;10709;49.006;12.100;2023-07-29T00:02:39;4.20;;;2.90;;
21101;SDS011;10709;49.006;12.100;2023-07-29T00:05:06;3.95;;;3.65;;
21101;SDS011;10709;49.006;12.100;2023-07-29T00:07:33;4.57;;;3.92;;
21101;SDS011;10709;49.006;12.100;2023-07-29T00:09:59;4.90;;;3.92;;
21101;SDS011;10709;49.006;12.100;2023-07-29T00:12:26;3.70;;;3.40;;
21101;SDS011;10709;49.006;12.100;2023-07-29T00:14:52;3.78;;;3.45;;
21101;SDS011;10709;49.006;12.100;2023-07-29T00:17:20;5.30;;;3.70;;
21101;SDS011;10709;49.006;12.100;2023-07-29T00:19:47;4.18;;;3.70;;
21101;SDS011;10709;49.006;12.100;2023-07-29T00:22:13;4.95;;;4.00;;
21101;SDS011;10709;49.006;12.100;2023-07-29T00:24:40;3.70;;;3.40;;
21101;SDS011;10709;49.006;12.100;2023-07-29T00:27:07;4.97;;;3.47;;
21101;SDS011;10709;49.006;12.100;2023-07-29T00:29:34;4.68;;;3.67;;
21101;SDS011;10709;49.006;12.100;2023-07-29T00:32:01;4.57;;;3.67;;
21101;SDS011;10709;49.006;12.100;2023-07-29T00:34:27;3.80;;;3.35;;
21101;SDS011;10709;49.006;12.100;2023-07-29T00:36:54;3.85;;;3.53;;
21101;SDS011;10709;49.006;12.100;2023-07-29T00:39:20;4.20;;;3.50;;
21101;SDS011;10709;49.006;12.100;2023-07-29T00:41:46;4.30;;;3.30;;
21101;SDS011;10709;49.006;12.100;2023-07-29T00:44:13;4.03;;;3.42;;
21101;SDS011;10709;49.006;12.100;2023-07-29T00:46:40;3.55;;;3.25;;
21101;SDS011;10709;49.006;12.100;2023-07-29T00:49:08;3.63;;;3.33;;
21101;SDS011;10709;49.006;12.100;2023-07-29T00:51:35;3.60;;;3.30;;
21101;SDS011;10709;49.006;12.100;2023-07-29T00:54:02;5.47;;;3.60;;
21101;SDS011;10709;49.006;12.100;2023-07-29T00:56:29;4.47;;;3.70;;
21101;SDS011;10709;49.006;12.100;2023-07-29T00:58:55;4.20;;;3.80;;
21101;SDS011;10709;49.006;12.100;2023-07-29T01:01:25;3.42;;;3.13;;
21101;SDS011;10709;49.006;12.100;2023-07-29T01:03:51;4.68;;;3.50;;
21101;SDS011;10709;49.006;12.100;2023-07-29T01:07:06;5.85;;;4.30;;
21101;SDS011;10709;49.006;12.100;2023-07-29T01:17:35;5.28;;;4.75;;
21101;SDS011;10709;49.006;12.100;2023-07-29T01:20:09;4.78;;;4.25;;
21101;SDS011;10709;49.006;12.100;2023-07-29T01:22:39;4.43;;;4.03;;
21101;SDS011;10709;49.006;12.100;2023-07-29T01:25:06;5.03;;;4.53;;
21101;SDS011;10709;49.006;12.100;2023-07-29T01:27:33;5.72;;;5.22;;
21101;SDS011;10709;49.006;12.100;2023-07-29T01:30:00;5.28;;;4.78;;
21101;SDS011;10709;49.006;12.100;2023-07-29T01:32:31;7.03;;;5.75;;
21101;SDS011;10709;49.006;12.100;2023-07-29T01:37:54;6.40;;;5.80;;
21101;SDS011;10709;49.006;12.100;2023-07-29T01:40:26;6.45;;;5.85;;
21101;SDS011;10709;49.006;12.100;2023-07-29T01:42:54;6.75;;;6.15;;
21101;SDS011;10709;49.006;12.100;2023-07-29T01:45:25;7.68;;;6.68;;
21101;SDS011;10709;49.006;12.100;2023-07-29T01:47:52;6.72;;;6.22;;
21101;SDS011;10709;49.006;12.100;2023-07-29T01:50:18;6.93;;;6.22;;
21101;SDS011;10709;49.006;12.100;2023-07-29T01:52:45;6.53;;;5.93;;
21101;SDS011;10709;49.006;12.100;2023-07-29T01:55:11;6.40;;;5.80;;
21101;SDS011;10709;49.006;12.100;2023-07-29T01:57:38;6.32;;;5.72;;
21101;SDS011;10709;49.006;12.100;2023-07-29T02:00:05;8.48;;;7.15;;
21101;SDS011;10709;49.006;12.100;2023-07-29T02:02:32;9.40;;;6.95;;
21101;SDS011;10709;49.006;12.100;2023-07-29T02:04:58;9.07;;;7.00;;
21101;SDS011;10709;49.006;12.100;2023-07-29T02:07:25;7.85;;;7.07;;
21101;SDS011;10709;49.006;12.100;2023-07-29T02:09:52;7.82;;;7.05;;
21101;SDS011;10709;49.006;12.100;2023-07-29T02:12:21;10.07;;;9.07;;
21101;SDS011;10709;49.006;12.100;2023-07-29T02:14:47;10.38;;;9.25;;
21101;SDS011;10709;49.006;12.100;2023-07-29T02:17:14;9.55;;;8.05;;
21101;SDS011;10709;49.006;12.100;2023-07-29T02:19:41;9.35;;;8.45;;
21101;SDS011;10709;49.006;12.100;2023-07-29T02:22:07;9.70;;;8.80;;
21101;SDS011;10709;49.006;12.100;2023-07-29T02:24:34;9.30;;;8.43;;
21101;SDS011;10709;49.006;12.100;2023-07-29T02:27:00;10.02;;;9.02;;
21101;SDS011;10709;49.006;12.100;2023-07-29T02:29:27;8.65;;;7.85;;
21101;SDS011;10709;49.006;12.100;2023-07-29T02:31:53;8.50;;;7.70;;
21101;SDS011;10709;49.006;12.100;2023-07-29T02:34:20;10.20;;;9.20;;
21101;SDS011;10709;49.006;12.100;2023-07-29T02:36:46;11.25;;;10.25;;
21101;SDS011;10709;49.006;12.100;2023-07-29T02:39:13;9.38;;;8.18;;
21101;SDS011;10709;49.006;12.100;2023-07-29T02:41:39;11.10;;;10.00;;
21101;SDS011;10709;49.006;12.100;2023-07-29T02:44:06;10.45;;;9.10;;
21101;SDS011;10709;49.006;12.100;2023-07-29T02:46:33;11.25;;;10.10;;
21101;SDS011;10709;49.006;12.100;2023-07-29T02:49:01;10.77;;;9.70;;
21101;SDS011;10709;49.006;12.100;2023-07-29T02:51:29;10.43;;;9.13;;
21101;SDS011;10709;49.006;12.100;2023-07-29T02:53:56;9.80;;;8.90;;
21101;SDS011;10709;49.006;12.100;2023-07-29T02:56:23;10.93;;;9.80;;
21101;SDS011;10709;49.006;12.100;2023-07-29T02:58:49;10.60;;;9.50;;
21101;SDS011;10709;49.006;12.100;2023-07-29T03:01:17;10.02;;;9.02;;
21101;SDS011;10709;49.006;12.100;2023-07-29T03:03:44;9.90;;;8.90;;
21101;SDS011;10709;49.006;12.100;2023-07-29T03:06:13;9.38;;;8.48;;
21101;SDS011;10709;49.006;12.100;2023-07-29T03:08:40;9.65;;;8.75;;
21101;SDS011;10709;49.006;12.100;2023-07-29T03:11:12;10.38;;;9.27;;
21101;SDS011;10709;49.006;12.100;2023-07-29T03:13:39;9.85;;;8.95;;
21101;SDS011;10709;49.006;12.100;2023-07-29T03:18:33;10.43;;;9.40;;
21101;SDS011;10709;49.006;12.100;2023-07-29T03:20:59;10.50;;;9.50;;
21101;SDS011;10709;49.006;12.100;2023-07-29T03:23:27;9.82;;;8.82;;
21101;SDS011;10709;49.006;12.100;2023-07-29T03:25:54;9.73;;;8.75;;
21101;SDS011;10709;49.006;12.100;2023-07-29T03:28:28;9.57;;;8.68;;
21101;SDS011;10709;49.006;12.100;2023-07-29T03:30:56;8.82;;;7.95;;
21101;SDS011;10709;49.006;12.100;2023-07-29T03:33:24;9.73;;;8.32;;
21101;SDS011;10709;49.006;12.100;2023-07-29T03:35:54;8.10;;;7.32;;
21101;SDS011;10709;49.006;12.100;2023-07-29T03:38:21;9.10;;;8.23;;
21101;SDS011;10709;49.006;12.100;2023-07-29T03:40:47;10.70;;;8.45;;
21101;SDS011;10709;49.006;12.100;2023-07-29T03:43:14;8.85;;;8.05;;
21101;SDS011;10709;49.006;12.100;2023-07-29T03:45:40;9.40;;;8.23;;
21101;SDS011;10709;49.006;12.100;2023-07-29T03:48:07;8.68;;;7.35;;
21101;SDS011;10709;49.006;12.100;2023-07-29T03:50:34;8.15;;;7.35;;
21101;SDS011;10709;49.006;12.100;2023-07-29T03:53:02;8.35;;;7.55;;
21101;SDS011;10709;49.006;12.100;2023-07-29T03:55:31;8.57;;;7.68;;
21101;SDS011;10709;49.006;12.100;2023-07-29T03:57:58;11.90;;;8.73;;
21101;SDS011;10709;49.006;12.100;2023-07-29T04:00:26;10.27;;;9.18;;
21101;SDS011;10709;49.006;12.100;2023-07-29T04:02:53;10.52;;;9.52;;
21101;SDS011;10709;49.006;12.100;2023-07-29T04:05:20;9.95;;;8.95;;
21101;SDS011;10709;49.006;12.100;2023-07-29T04:07:46;9.68;;;8.70;;
21101;SDS011;10709;49.006;12.100;2023-07-29T04:10:13;8.93;;;7.95;;
21101;SDS011;10709;49.006;12.100;2023-07-29T04:12:40;10.85;;;9.20;;
21101;SDS011;10709;49.006;12.100;2023-07-29T04:15:07;9.55;;;8.60;;
21101;SDS011;10709;49.006;12.100;2023-07-29T04:17:34;9.70;;;8.80;;
21101;SDS011;10709;49.006;12.100;2023-07-29T04:20:00;10.45;;;9.02;;
21101;SDS011;10709;49.006;12.100;2023-07-29T04:22:27;9.90;;;8.90;;
21101;SDS011;10709;49.006;12.100;2023-07-29T04:24:54;9.73;;;8.73;;
21101;SDS011;10709;49.006;12.100;2023-07-29T04:27:21;9.93;;;8.75;;
21101;SDS011;10709;49.006;12.100;2023-07-29T04:29:49;9.75;;;8.75;;
21101;SDS011;10709;49.006;12.100;2023-07-29T04:32:16;10.80;;;9.70;;
21101;SDS011;10709;49.006;12.100;2023-07-29T04:34:42;11.75;;;10.15;;
21101;SDS011;10709;49.006;12.100;2023-07-29T04:37:09;12.10;;;10.90;;
21101;SDS011;10709;49.006;12.100;2023-07-29T04:39:36;11.80;;;10.55;;
21101;SDS011;10709;49.006;12.100;2023-07-29T04:42:02;11.98;;;10.55;;
21101;SDS011;10709;49.006;12.100;2023-07-29T04:44:29;11.80;;;10.60;;
21101;SDS011;10709;49.006;12.100;2023-07-29T04:46:55;13.52;;;11.00;;
21101;SDS011;10709;49.006;12.100;2023-07-29T04:49:22;12.23;;;10.48;;
21101;SDS011;10709;49.006;12.100;2023-07-29T04:51:48;14.05;;;11.57;;
21101;SDS011;10709;49.006;12.100;2023-07-29T04:54:15;13.93;;;11.23;;
21101;SDS011;10709;49.006;12.100;2023-07-29T04:56:41;13.43;;;11.48;;
21101;SDS011;10709;49.006;12.100;2023-07-29T04:59:09;13.88;;;12.18;;
21101;SDS011;10709;49.006;12.100;2023-07-29T05:01:35;13.27;;;11.90;;
21101;SDS011;10709;49.006;12.100;2023-07-29T05:04:02;12.77;;;11.48;;
21101;SDS011;10709;49.006;12.100;2023-07-29T05:06:28;14.23;;;12.70;;
21101;SDS011;10709;49.006;12.100;2023-07-29T05:08:58;14.27;;;12.77;;
21101;SDS011;10709;49.006;12.100;2023-07-29T05:11:25;14.10;;;12.60;;
21101;SDS011;10709;49.006;12.100;2023-07-29T05:13:52;14.98;;;13.18;;
21101;SDS011;10709;49.006;12.100;2023-07-29T05:16:20;14.15;;;11.85;;
21101;SDS011;10709;49.006;12.100;2023-07-29T05:18:46;14.05;;;12.65;;
21101;SDS011;10709;49.006;12.100;2023-07-29T05:21:16;13.52;;;11.75;;
21101;SDS011;10709;49.006;12.100;2023-07-29T05:23:42;11.00;;;9.90;;
21101;SDS011;10709;49.006;12.100;2023-07-29T05:26:09;9.75;;;8.75;;
21101;SDS011;10709;49.006;12.100;2023-07-29T05:28:35;11.98;;;9.63;;
21101;SDS011;10709;49.006;12.100;2023-07-29T05:31:02;9.23;;;8.02;;
21101;SDS011;10709;49.006;12.100;2023-07-29T05:33:28;8.77;;;7.80;;
21101;SDS011;10709;49.006;12.100;2023-07-29T05:35:55;8.85;;;7.90;;
21101;SDS011;10709;49.006;12.100;2023-07-29T05:38:21;8.32;;;7.43;;
21101;SDS011;10709;49.006;12.100;2023-07-29T05:40:48;7.10;;;6.28;;
21101;SDS011;10709;49.006;12.100;2023-07-29T05:43:15;7.40;;;6.70;;
21101;SDS011;10709;49.006;12.100;2023-07-29T05:45:41;7.38;;;6.22;;
21101;SDS011;10709;49.006;12.100;2023-07-29T05:48:08;7.55;;;6.68;;
21101;SDS011;10709;49.006;12.100;2023-07-29T05:50:35;7.10;;;5.90;;
21101;SDS011;10709;49.006;12.100;2023-07-29T05:53:01;7.45;;;5.78;;
21101;SDS011;10709;49.006;12.100;2023-07-29T05:55:31;6.18;;;5.30;;
21101;SDS011;10709;49.006;12.100;2023-07-29T05:57:58;5.72;;;5.20;;
21101;SDS011;10709;49.006;12.100;2023-07-29T06:00:24;5.95;;;5.35;;
21101;SDS011;10709;49.006;12.100;2023-07-29T06:02:51;7.20;;;5.80;;
21101;SDS011;10709;49.006;12.100;2023-07-29T06:05:17;6.13;;;5.53;;
21101;SDS011;10709;49.006;12.100;2023-07-29T06:07:45;5.43;;;4.93;;
21101;SDS011;10709;49.006;12.100;2023-07-29T06:10:12;5.72;;;5.13;;
21101;SDS011;10709;49.006;12.100;2023-07-29T06:12:39;5.80;;;5.20;;
21101;SDS011;10709;49.006;12.100;2023-07-29T06:15:06;6.03;;;5.40;;
21101;SDS011;10709;49.006;12.100;2023-07-29T06:17:33;5.95;;;5.45;;
21101;SDS011;10709;49.006;12.100;2023-07-29T06:19:59;5.95;;;5.43;;
21101;SDS011;10709;49.006;12.100;2023-07-29T06:22:26;6.95;;;5.50;;
21101;SDS011;10709;49.006;12.100;2023-07-29T06:24:52;5.88;;;5.28;;
21101;SDS011;10709;49.006;12.100;2023-07-29T06:27:19;6.18;;;5.45;;
21101;SDS011;10709;49.006;12.100;2023-07-29T06:29:46;5.55;;;5.03;;
21101;SDS011;10709;49.006;12.100;2023-07-29T06:32:12;7.55;;;4.80;;
21101;SDS011;10709;49.006;12.100;2023-07-29T06:34:39;5.80;;;4.60;;
21101;SDS011;10709;49.006;12.100;2023-07-29T06:37:05;5.75;;;5.03;;
21101;SDS011;10709;49.006;12.100;2023-07-29T06:39:33;7.28;;;4.85;;
21101;SDS011;10709;49.006;12.100;2023-07-29T06:41:59;6.70;;;4.32;;
21101;SDS011;10709;49.006;12.100;2023-07-29T06:44:26;7.07;;;4.22;;
21101;SDS011;10709;49.006;12.100;2023-07-29T06:46:52;4.50;;;4.07;;
21101;SDS011;10709;49.006;12.100;2023-07-29T06:49:19;5.70;;;4.10;;
21101;SDS011;10709;49.006;12.100;2023-07-29T06:51:46;3.97;;;3.58;;
21101;SDS011;10709;49.006;12.100;2023-07-29T06:54:12;4.85;;;4.00;;
21101;SDS011;10709;49.006;12.100;2023-07-29T06:56:39;4.18;;;3.72;;
21101;SDS011;10709;49.006;12.100;2023-07-29T06:59:07;5.93;;;4.30;;
21101;SDS011;10709;49.006;12.100;2023-07-29T07:01:34;4.72;;;4.18;;
21101;SDS011;10709;49.006;12.100;2023-07-29T07:04:01;7.00;;;4.10;;
21101;SDS011;10709;49.006;12.100;2023-07-29T07:06:27;6.68;;;4.28;;
21101;SDS011;10709;49.006;12.100;2023-07-29T07:08:54;5.78;;;3.92;;
21101;SDS011;10709;49.006;12.100;2023-07-29T07:11:20;4.50;;;3.72;;
21101;SDS011;10709;49.006;12.100;2023-07-29T07:13:48;5.80;;;3.90;;
21101;SDS011;10709;49.006;12.100;2023-07-29T07:16:14;4.45;;;3.75;;
21101;SDS011;10709;49.006;12.100;2023-07-29T07:18:41;3.95;;;3.60;;
21101;SDS011;10709;49.006;12.100;2023-07-29T07:21:08;5.25;;;3.80;;
21101;SDS011;10709;49.006;12.100;2023-07-29T07:23:35;7.65;;;3.83;;
21101;SDS011;10709;49.006;12.100;2023-07-29T07:26:02;5.07;;;3.72;;
21101;SDS011;10709;49.006;12.100;2023-07-29T07:28:29;4.88;;;3.65;;
21101;SDS011;10709;49.006;12.100;2023-07-29T07:30:55;4.38;;;3.75;;
21101;SDS011;10709;49.006;12.100;2023-07-29T07:33:24;6.20;;;4.75;;
21101;SDS011;10709;49.006;12.100;2023-07-29T07:35:50;6.07;;;4.30;;
21101;SDS011;10709;49.006;12.100;2023-07-29T07:38:17;5.93;;;4.20;;
21101;SDS011;10709;49.006;12.100;2023-07-29T07:40:51;7.18;;;4.50;;
21101;SDS011;10709;49.006;12.100;2023-07-29T07:43:22;6.72;;;3.90;;
21101;SDS011;10709;49.006;12.100;2023-07-29T07:45:49;8.32;;;4.43;;
21101;SDS011;10709;49.006;12.100;2023-07-29T07:48:17;6.97;;;4.80;;
21101;SDS011;10709;49.006;12.100;2023-07-29T07:50:43;7.72;;;4.97;;
21101;SDS011;10709;49.006;12.100;2023-07-29T07:53:10;4.95;;;4.25;;
21101;SDS011;10709;49.006;12.100;2023-07-29T07:55:37;5.55;;;4.13;;
21101;SDS011;10709;49.006;12.100;2023-07-29T07:58:03;4.38;;;3.88;;
21101;SDS011;10709;49.006;12.100;2023-07-29T08:00:30;5.55;;;4.60;;
21101;SDS011;10709;49.006;12.100;2023-07-29T08:02:56;5.10;;;3.70;;
21101;SDS011;10709;49.006;12.100;2023-07-29T08:05:23;7.22;;;4.43;;
21101;SDS011;10709;49.006;12.100;2023-07-29T08:07:49;5.05;;;3.70;;
21101;SDS011;10709;49.006;12.100;2023-07-29T08:10:16;3.42;;;3.13;;
21101;SDS011;10709;49.006;12.100;2023-07-29T08:12:43;4.03;;;3.60;;
21101;SDS011;10709;49.006;12.100;2023-07-29T08:15:09;3.88;;;3.58;;
21101;SDS011;10709;49.006;12.100;2023-07-29T08:17:36;4.10;;;3.67;;
21101;SDS011;10709;49.006;12.100;2023-07-29T08:20:02;18.65;;;5.45;;
21101;SDS011;10709;49.006;12.100;2023-07-29T08:22:29;17.38;;;5.85;;
21101;SDS011;10709;49.006;12.100;2023-07-29T08:24:55;14.98;;;6.57;;
21101;SDS011;10709;49.006;12.100;2023-07-29T08:27:22;6.38;;;4.65;;
21101;SDS011;10709;49.006;12.100;2023-07-29T08:29:50;7.22;;;4.00;;
21101;SDS011;10709;49.006;12.100;2023-07-29T08:32:16;5.10;;;3.90;;
21101;SDS011;10709;49.006;12.100;2023-07-29T08:34:42;6.53;;;3.83;;
21101;SDS011;10709;49.006;12.100;2023-07-29T08:37:09;4.63;;;3.92;;
21101;SDS011;10709;49.006;12.100;2023-07-29T08:39:35;6.03;;;4.32;;
21101;SDS011;10709;49.006;12.100;2023-07-29T08:42:09;7.38;;;4.30;;
21101;SDS011;10709;49.006;12.100;2023-07-29T08:44:40;6.40;;;4.53;;
21101;SDS011;10709;49.006;12.100;2023-07-29T08:47:08;6.28;;;3.92;;
21101;SDS011;10709;49.006;12.100;2023-07-29T08:49:35;6.78;;;4.28;;
21101;SDS011;10709;49.006;12.100;2023-07-29T08:52:03;5.20;;;4.13;;
21101;SDS011;10709;49.006;12.100;2023-07-29T08:54:30;4.22;;;3.83;;
21101;SDS011;10709;49.006;12.100;2023-07-29T08:56:57;4.55;;;4.05;;
21101;SDS011;10709;49.006;12.100;2023-07-29T08:59:25;6.88;;;3.95;;
21101;SDS011;10709;49.006;12.100;2023-07-29T09:01:54;5.68;;;3.67;;
21101;SDS011;10709;49.006;12.100;2023-07-29T09:04:24;4.63;;;3.70;;
21101;SDS011;10709;49.006;12.100;2023-07-29T09:06:51;4.57;;;3.88;;
21101;SDS011;10709;49.006;12.100;2023-07-29T09:09:20;5.00;;;4.00;;
21101;SDS011;10709;49.006;12.100;2023-07-29T09:11:47;5.25;;;4.20;;
21101;SDS011;10709;49.006;12.100;2023-07-29T09:14:14;5.20;;;4.70;;
21101;SDS011;10709;49.006;12.100;2023-07-29T09:16:41;5.70;;;4.43;;
21101;SDS011;10709;49.006;12.100;2023-07-29T09:19:07;5.60;;;5.00;;
21101;SDS011;10709;49.006;12.100;2023-07-29T09:21:34;7.65;;;4.95;;
21101;SDS011;10709;49.006;12.100;2023-07-29T09:24:05;5.45;;;4.90;;
21101;SDS011;10709;49.006;12.100;2023-07-29T09:26:34;8.27;;;5.25;;
21101;SDS011;10709;49.006;12.100;2023-07-29T09:29:01;8.13;;;5.57;;
21101;SDS011;10709;49.006;12.100;2023-07-29T09:31:29;5.18;;;4.70;;
21101;SDS011;10709;49.006;12.100;2023-07-29T09:33:57;5.68;;;3.70;;
21101;SDS011;10709;49.006;12.100;2023-07-29T09:36:31;4.30;;;3.90;;
21101;SDS011;10709;49.006;12.100;2023-07-29T09:38:58;4.10;;;3.70;;
21101;SDS011;10709;49.006;12.100;2023-07-29T09:41:26;3.50;;;3.20;;
21101;SDS011;10709;49.006;12.100;2023-07-29T09:43:57;4.00;;;3.70;;
21101;SDS011;10709;49.006;12.100;2023-07-29T09:46:25;3.78;;;3.47;;
21101;SDS011;10709;49.006;12.100;2023-07-29T09:48:59;3.50;;;3.20;;
21101;SDS011;10709;49.006;12.100;2023-07-29T09:51:28;4.05;;;3.22;;
21101;SDS011;10709;49.006;12.100;2023-07-29T09:53:54;3.80;;;3.35;;
21101;SDS011;10709;49.006;12.100;2023-07-29T09:56:26;3.30;;;3.00;;
21101;SDS011;10709;49.006;12.100;2023-07-29T09:58:55;3.72;;;3.40;;
21101;SDS011;10709;49.006;12.100;2023-07-29T10:01:22;4.25;;;3.25;;
21101;SDS011;10709;49.006;12.100;2023-07-29T10:03:49;3.47;;;3.17;;
21101;SDS011;10709;49.006;12.100;2023-07-29T10:06:16;4.28;;;3.38;;
21101;SDS011;10709;49.006;12.100;2023-07-29T10:08:43;4.25;;;3.38;;
21101;SDS011;10709;49.006;12.100;2023-07-29T10:11:11;5.20;;;3.90;;
21101;SDS011;10709;49.006;12.100;2023-07-29T10:13:38;10.18;;;5.30;;
21101;SDS011;10709;49.006;12.100;2023-07-29T10:16:05;5.43;;;4.13;;
21101;SDS011;10709;49.006;12.100;2023-07-29T10:18:32;5.88;;;4.35;;
21101;SDS011;10709;49.006;12.100;2023-07-29T10:21:00;6.53;;;4.22;;
21101;SDS011;10709;49.006;12.100;2023-07-29T10:23:27;6.30;;;4.30;;
21101;SDS011;10709;49.006;12.100;2023-07-29T10:26:02;4.88;;;4.40;;
21101;SDS011;10709;49.006;12.100;2023-07-29T10:28:37;6.90;;;4.55;;
21101;SDS011;10709;49.006;12.100;2023-07-29T10:31:06;5.00;;;4.50;;
21101;SDS011;10709;49.006;12.100;2023-07-29T10:33:33;5.43;;;4.40;;
21101;SDS011;10709;49.006;12.100;2023-07-29T10:36:00;4.95;;;4.10;;
21101;SDS011;10709;49.006;12.100;2023-07-29T10:38:28;4.95;;;4.35;;
21101;SDS011;10709;49.006;12.100;2023-07-29T10:40:56;5.03;;;4.53;;
21101;SDS011;10709;49.006;12.100;2023-07-29T10:45:52;6.03;;;5.43;;
21101;SDS011;10709;49.006;12.100;2023-07-29T10:54:17;7.55;;;5.10;;
21101;SDS011;10709;49.006;12.100;2023-07-29T10:56:48;5.65;;;5.15;;
21101;SDS011;10709;49.006;12.100;2023-07-29T11:01:53;6.03;;;5.35;;
21101;SDS011;10709;49.006;12.100;2023-07-29T11:04:26;6.53;;;4.85;;
21101;SDS011;10709;49.006;12.100;2023-07-29T11:17:54;4.68;;;4.20;;
21101;SDS011;10709;49.006;12.100;2023-07-29T11:20:30;4.60;;;3.80;;
21101;SDS011;10709;49.006;12.100;2023-07-29T11:22:59;4.00;;;3.70;;
21101;SDS011;10709;49.006;12.100;2023-07-29T11:25:27;4.50;;;4.10;;
21101;SDS011;10709;49.006;12.100;2023-07-29T11:27:56;5.20;;;4.55;;
21101;SDS011;10709;49.006;12.100;2023-07-29T11:30:24;5.22;;;4.72;;
21101;SDS011;10709;49.006;12.100;2023-07-29T11:32:55;6.38;;;5.68;;
21101;SDS011;10709;49.006;12.100;2023-07-29T11:35:24;5.10;;;4.70;;
21101;SDS011;10709;49.006;12.100;2023-07-29T11:37:52;4.30;;;3.90;;
21101;SDS011;10709;49.006;12.100;2023-07-29T11:40:21;4.25;;;3.83;;
21101;SDS011;10709;49.006;12.100;2023-07-29T11:42:49;4.65;;;4.25;;
21101;SDS011;10709;49.006;12.100;2023-07-29T11:45:18;3.83;;;3.50;;
21101;SDS011;10709;49.006;12.100;2023-07-29T11:47:46;3.72;;;3.42;;
21101;SDS011;10709;49.006;12.100;2023-07-29T11:50:13;3.90;;;3.53;;
21101;SDS011;10709;49.006;12.100;2023-07-29T11:52:45;3.63;;;3.33;;
21101;SDS011;10709;49.006;12.100;2023-07-29T11:55:15;3.90;;;3.60;;
21101;SDS011;10709;49.006;12.100;2023-07-29T11:57:42;3.40;;;3.10;;
21101;SDS011;10709;49.006;12.100;2023-07-29T12:00:11;3.90;;;3.40;;
21101;SDS011;10709;49.006;12.100;2023-07-29T12:02:42;4.80;;;3.25;;
21101;SDS011;10709;49.006;12.100;2023-07-29T12:05:14;3.10;;;2.80;;
21101;SDS011;10709;49.006;12.100;2023-07-29T12:07:42;2.78;;;2.58;;
21101;SDS011;10709;49.006;12.100;2023-07-29T12:10:09;3.47;;;2.97;;
21101;SDS011;10709;49.006;12.100;2023-07-29T12:12:46;3.38;;;2.90;;
21101;SDS011;10709;49.006;12.100;2023-07-29T12:15:22;3.10;;;2.65;;
21101;SDS011;10709;49.006;12.100;2023-07-29T12:17:55;2.70;;;2.50;;
21101;SDS011;10709;49.006;12.100;2023-07-29T12:20:24;2.90;;;2.70;;
21101;SDS011;10709;49.006;12.100;2023-07-29T12:22:53;2.80;;;2.53;;
21101;SDS011;10709;49.006;12.100;2023-07-29T12:30:45;2.80;;;2.60;;
21101;SDS011;10709;49.006;12.100;2023-07-29T12:33:28;2.70;;;2.50;;
21101;SDS011;10709;49.006;12.100;2023-07-29T12:35:58;2.38;;;2.20;;
21101;SDS011;10709;49.006;12.100;2023-07-29T12:38:26;3.17;;;2.00;;
21101;SDS011;10709;49.006;12.100;2023-07-29T12:40:55;2.03;;;1.92;;
21101;SDS011;10709;49.006;12.100;2023-07-29T12:43:22;2.38;;;2.10;;
21101;SDS011;10709;49.006;12.100;2023-07-29T12:45:52;1.98;;;1.88;;
21101;SDS011;10709;49.006;12.100;2023-07-29T12:48:20;2.88;;;1.90;;
21101;SDS011;10709;49.006;12.100;2023-07-29T12:50:47;2.63;;;2.10;;
21101;SDS011;10709;49.006;12.100;2023-07-29T12:53:14;2.13;;;1.98;;
21101;SDS011;10709;49.006;12.100;2023-07-29T12:55:40;2.10;;;2.00;;
21101;SDS011;10709;49.006;12.100;2023-07-29T12:58:07;2.15;;;1.95;;
21101;SDS011;10709;49.006;12.100;2023-07-29T13:00:33;2.30;;;2.10;;
21101;SDS011;10709;49.006;12.100;2023-07-29T13:03:00;2.30;;;1.90;;
21101;SDS011;10709;49.006;12.100;2023-07-29T13:05:26;2.00;;;1.80;;
21101;SDS011;10709;49.006;12.100;2023-07-29T13:08:02;2.20;;;2.10;;
21101;SDS011;10709;49.006;12.100;2023-07-29T13:11:05;2.00;;;1.75;;
21101;SDS011;10709;49.006;12.100;2023-07-29T13:13:39;1.90;;;1.80;;
21101;SDS011;10709;49.006;12.100;2023-07-29T13:16:06;3.13;;;2.03;;
21101;SDS011;10709;49.006;12.100;2023-07-29T13:18:32;2.10;;;1.85;;
21101;SDS011;10709;49.006;12.100;2023-07-29T13:21:00;2.40;;;2.10;;
21101;SDS011;10709;49.006;12.100;2023-07-29T13:23:27;1.90;;;1.80;;
21101;SDS011;10709;49.006;12.100;2023-07-29T13:25:56;2.20;;;2.10;;
21101;SDS011;10709;49.006;12.100;2023-07-29T13:28:23;2.03;;;1.85;;
21101;SDS011;10709;49.006;12.100;2023-07-29T13:30:50;2.10;;;2.00;;
21101;SDS011;10709;49.006;12.100;2023-07-29T13:33:17;2.17;;;2.08;;
21101;SDS011;10709;49.006;12.100;2023-07-29T13:35:43;2.20;;;2.00;;
21101;SDS011;10709;49.006;12.100;2023-07-29T13:38:10;2.20;;;2.00;;
21101;SDS011;10709;49.006;12.100;2023-07-29T13:40:40;2.17;;;2.08;;
21101;SDS011;10709;49.006;12.100;2023-07-29T13:43:24;2.88;;;2.10;;
21101;SDS011;10709;49.006;12.100;2023-07-29T13:46:16;2.35;;;1.85;;
21101;SDS011;10709;49.006;12.100;2023-07-29T13:48:43;2.78;;;1.90;;
21101;SDS011;10709;49.006;12.100;2023-07-29T13:51:13;2.08;;;1.98;;
21101;SDS011;10709;49.006;12.100;2023-07-29T13:53:54;2.03;;;1.70;;
21101;SDS011;10709;49.006;12.100;2023-07-29T13:56:25;2.15;;;2.00;;
21101;SDS011;10709;49.006;12.100;2023-07-29T13:59:06;2.00;;;1.80;;
21101;SDS011;10709;49.006;12.100;2023-07-29T14:01:39;2.03;;;1.92;;
21101;SDS011;10709;49.006;12.100;2023-07-29T14:04:53;2.63;;;1.80;;
21101;SDS011;10709;49.006;12.100;2023-07-29T14:08:02;1.95;;;1.80;;
21101;SDS011;10709;49.006;12.100;2023-07-29T14:10:33;2.83;;;1.92;;
21101;SDS011;10709;49.006;12.100;2023-07-29T14:13:13;2.03;;;1.83;;
21101;SDS011;10709;49.006;12.100;2023-07-29T14:15:47;2.25;;;1.85;;
21101;SDS011;10709;49.006;12.100;2023-07-29T14:18:20;2.08;;;1.80;;
21101;SDS011;10709;49.006;12.100;2023-07-29T14:21:02;2.33;;;1.70;;
21101;SDS011;10709;49.006;12.100;2023-07-29T14:24:16;1.90;;;1.80;;
21101;SDS011;10709;49.006;12.100;2023-07-29T14:26:44;2.63;;;1.58;;
21101;SDS011;10709;49.006;12.100;2023-07-29T14:29:14;1.80;;;1.70;;
21101;SDS011;10709;49.006;12.100;2023-07-29T14:31:44;1.67;;;1.55;;
21101;SDS011;10709;49.006;12.100;2023-07-29T14:34:28;1.80;;;1.70;;
21101;SDS011;10709;49.006;12.100;2023-07-29T14:37:40;1.80;;;1.70;;
21101;SDS011;10709;49.006;12.100;2023-07-29T14:40:08;2.92;;;1.60;;
21101;SDS011;10709;49.006;12.100;2023-07-29T14:42:53;1.67;;;1.58;;
21101;SDS011;10709;49.006;12.100;2023-07-29T14:45:23;1.83;;;1.73;;
21101;SDS011;10709;49.006;12.100;2023-07-29T14:48:06;1.75;;;1.65;;
21101;SDS011;10709;49.006;12.100;2023-07-29T14:50:50;1.95;;;1.80;;
21101;SDS011;10709;49.006;12.100;2023-07-29T14:53:58;1.98;;;1.50;;
21101;SDS011;10709;49.006;12.100;2023-07-29T14:57:16;1.70;;;1.60;;
21101;SDS011;10709;49.006;12.100;2023-07-29T15:00:23;1.85;;;1.75;;
21101;SDS011;10709;49.006;12.100;2023-07-29T15:03:12;1.67;;;1.58;;
21101;SDS011;10709;49.006;12.100;2023-07-29T15:06:29;1.80;;;1.70;;
21101;SDS011;10709;49.006;12.100;2023-07-29T15:09:43;2.05;;;1.40;;
21101;SDS011;10709;49.006;12.100;2023-07-29T15:12:30;1.90;;;1.75;;
21101;SDS011;10709;49.006;12.100;2023-07-29T15:16:17;1.60;;;1.50;;
21101;SDS011;10709;49.006;12.100;2023-07-29T15:19:22;1.70;;;1.60;;
21101;SDS011;10709;49.006;12.100;2023-07-29T15:22:16;2.33;;;1.50;;
21101;SDS011;10709;49.006;12.100;2023-07-29T15:24:51;1.65;;;1.50;;
21101;SDS011;10709;49.006;12.100;2023-07-29T15:27:39;1.60;;;1.50;;